sensor_id;sensor_type;location;lat;lon;timestamp;P1;P2;P0
65973;PMS5003;52729;54.906;73.316;2022-10-17T00:01:57;14.67;13.00;5.00
65973;PMS5003;52729;54.906;73.316;2022-10-17T00:04:58;13.00;10.00;4.00
65973;PMS5003;52729;54.906;73.316;2022-10-17T00:08:09;10.33;8.00;4.00
65973;PMS5003;52729;54.906;73.316;2022-10-17T00:11:18;8.33;5.67;4.00
65973;PMS5003;52729;54.906;73.316;2022-10-17T00:14:19;8.33;7.33;4.00
65973;PMS5003;52729;54.906;73.316;2022-10-17T00:17:20;13.33;11.00;5.33
65973;PMS5003;52729;54.906;73.316;2022-10-17T00:20:21;16.00;12.33;5.67
65973;PMS5003;52729;54.906;73.316;2022-10-17T00:23:23;17.33;15.00;7.00
65973;PMS5003;52729;54.906;73.316;2022-10-17T00:26:24;18.00;16.00;8.00
65973;PMS5003;52729;54.906;73.316;2022-10-17T00:29:25;21.00;19.00;10.00
65973;PMS5003;52729;54.906;73.316;2022-10-17T00:32:32;21.67;21.33;11.00
65973;PMS5003;52729;54.906;73.316;2022-10-17T00:35:43;23.00;22.00;11.33
65973;PMS5003;52729;54.906;73.316;2022-10-17T00:38:45;25.00;24.00;14.00
65973;PMS5003;52729;54.906;73.316;2022-10-17T00:41:47;29.00;25.00;16.00
65973;PMS5003;52729;54.906;73.316;2022-10-17T00:45:12;31.33;26.00;17.00
65973;PMS5003;52729;54.906;73.316;2022-10-17T00:48:17;36.33;29.00;18.00
65973;PMS5003;52729;54.906;73.316;2022-10-17T00:51:20;36.33;29.00;18.33
65973;PMS5003;52729;54.906;73.316;2022-10-17T00:54:24;40.00;30.00;18.33
65973;PMS5003;52729;54.906;73.316;2022-10-17T00:57:27;36.00;29.00;18.00
65973;PMS5003;52729;54.906;73.316;2022-10-17T01:00:31;35.33;29.00;18.67
65973;PMS5003;52729;54.906;73.316;2022-10-17T01:03:32;31.00;27.00;18.00
65973;PMS5003;52729;54.906;73.316;2022-10-17T01:06:33;30.33;26.00;17.00
65973;PMS5003;52729;54.906;73.316;2022-10-17T01:09:34;33.00;28.00;18.00
65973;PMS5003;52729;54.906;73.316;2022-10-17T01:16:38;37.00;30.33;18.00
65973;PMS5003;52729;54.906;73.316;2022-10-17T01:33:02;43.00;34.00;21.00
65973;PMS5003;52729;54.906;73.316;2022-10-17T01:36:22;44.33;36.00;21.67
65973;PMS5003;52729;54.906;73.316;2022-10-17T01:42:52;46.00;37.00;23.00
65973;PMS5003;52729;54.906;73.316;2022-10-17T01:45:58;44.00;35.00;22.00
65973;PMS5003;52729;54.906;73.316;2022-10-17T01:49:03;43.00;35.00;22.00
65973;PMS5003;52729;54.906;73.316;2022-10-17T01:52:09;40.00;31.00;21.00
65973;PMS5003;52729;54.906;73.316;2022-10-17T01:55:22;32.67;26.33;17.33
65973;PMS5003;52729;54.906;73.316;2022-10-17T01:58:32;35.33;28.00;18.00
65973;PMS5003;52729;54.906;73.316;2022-10-17T02:01:41;33.33;27.33;18.00
65973;PMS5003;52729;54.906;73.316;2022-10-17T02:04:43;34.67;28.33;18.00
65973;PMS5003;52729;54.906;73.316;2022-10-17T02:07:55;35.00;27.33;17.67
65973;PMS5003;52729;54.906;73.316;2022-10-17T02:11:02;34.33;28.00;17.00
65973;PMS5003;52729;54.906;73.316;2022-10-17T02:14:24;35.67;27.67;18.00
65973;PMS5003;52729;54.906;73.316;2022-10-17T02:17:40;37.67;29.00;18.00
65973;PMS5003;52729;54.906;73.316;2022-10-17T02:23:52;35.00;28.33;18.33
65973;PMS5003;52729;54.906;73.316;2022-10-17T02:26:58;27.67;25.00;17.00
65973;PMS5003;52729;54.906;73.316;2022-10-17T02:30:15;24.67;23.67;16.00
65973;PMS5003;52729;54.906;73.316;2022-10-17T02:33:24;23.33;22.00;15.00
65973;PMS5003;52729;54.906;73.316;2022-10-17T02:36:31;20.00;19.00;13.00
65973;PMS5003;52729;54.906;73.316;2022-10-17T02:39:34;17.33;17.33;8.00
65973;PMS5003;52729;54.906;73.316;2022-10-17T02:42:37;18.00;18.00;8.00
65973;PMS5003;52729;54.906;73.316;2022-10-17T02:45:38;17.33;17.00;6.00
65973;PMS5003;52729;54.906;73.316;2022-10-17T02:48:41;16.00;16.00;6.00
65973;PMS5003;52729;54.906;73.316;2022-10-17T02:52:30;17.00;16.00;6.00
65973;PMS5003;52729;54.906;73.316;2022-10-17T02:55:13;19.00;18.33;7.00
65973;PMS5003;52729;54.906;73.316;2022-10-17T02:58:20;19.00;19.00;9.00
65973;PMS5003;52729;54.906;73.316;2022-10-17T03:01:23;18.33;17.33;9.00
65973;PMS5003;52729;54.906;73.316;2022-10-17T03:04:26;21.33;18.00;9.67
65973;PMS5003;52729;54.906;73.316;2022-10-17T03:07:27;22.67;20.00;11.00
65973;PMS5003;52729;54.906;73.316;2022-10-17T03:10:29;23.00;19.00;13.00
65973;PMS5003;52729;54.906;73.316;2022-10-17T03:13:32;26.00;22.33;14.00
65973;PMS5003;52729;54.906;73.316;2022-10-17T03:16:34;25.33;22.33;13.00
65973;PMS5003;52729;54.906;73.316;2022-10-17T03:19:35;25.00;21.00;14.33
65973;PMS5003;52729;54.906;73.316;2022-10-17T03:22:36;24.00;21.00;13.00
65973;PMS5003;52729;54.906;73.316;2022-10-17T03:25:39;26.33;22.33;13.67
65973;PMS5003;52729;54.906;73.316;2022-10-17T03:28:40;26.67;24.00;14.33
65973;PMS5003;52729;54.906;73.316;2022-10-17T03:31:44;23.33;21.00;12.00
65973;PMS5003;52729;54.906;73.316;2022-10-17T03:34:45;22.33;19.67;10.67
65973;PMS5003;52729;54.906;73.316;2022-10-17T03:37:46;23.00;20.33;10.33
65973;PMS5003;52729;54.906;73.316;2022-10-17T03:40:54;24.00;21.33;13.00
65973;PMS5003;52729;54.906;73.316;2022-10-17T03:44:06;24.00;21.00;12.33
65973;PMS5003;52729;54.906;73.316;2022-10-17T03:47:07;25.00;22.00;13.00
65973;PMS5003;52729;54.906;73.316;2022-10-17T03:50:08;25.33;23.67;14.00
65973;PMS5003;52729;54.906;73.316;2022-10-17T03:53:11;29.00;24.00;14.00
65973;PMS5003;52729;54.906;73.316;2022-10-17T03:56:18;25.00;23.67;14.00
65973;PMS5003;52729;54.906;73.316;2022-10-17T03:59:27;26.00;24.33;14.00
65973;PMS5003;52729;54.906;73.316;2022-10-17T04:02:35;26.67;23.00;13.33
65973;PMS5003;52729;54.906;73.316;2022-10-17T04:05:36;32.67;27.67;17.67
65973;PMS5003;52729;54.906;73.316;2022-10-17T04:08:47;33.33;28.33;18.33
65973;PMS5003;52729;54.906;73.316;2022-10-17T04:12:05;47.67;38.67;22.67
65973;PMS5003;52729;54.906;73.316;2022-10-17T04:15:08;48.00;39.00;23.00
65973;PMS5003;52729;54.906;73.316;2022-10-17T04:18:09;37.33;31.33;18.00
65973;PMS5003;52729;54.906;73.316;2022-10-17T04:21:11;27.00;24.33;16.00
65973;PMS5003;52729;54.906;73.316;2022-10-17T04:24:12;26.00;23.00;15.33
65973;PMS5003;52729;54.906;73.316;2022-10-17T04:27:28;26.00;22.00;13.33
65973;PMS5003;52729;54.906;73.316;2022-10-17T04:30:29;25.33;22.00;12.00
65973;PMS5003;52729;54.906;73.316;2022-10-17T04:33:31;25.33;23.00;13.00
65973;PMS5003;52729;54.906;73.316;2022-10-17T04:36:32;24.00;22.00;12.00
65973;PMS5003;52729;54.906;73.316;2022-10-17T04:39:35;24.33;21.00;9.00
65973;PMS5003;52729;54.906;73.316;2022-10-17T04:42:37;23.67;20.00;10.00
65973;PMS5003;52729;54.906;73.316;2022-10-17T04:45:38;22.00;18.33;9.00
65973;PMS5003;52729;54.906;73.316;2022-10-17T04:48:49;23.00;21.00;11.00
65973;PMS5003;52729;54.906;73.316;2022-10-17T04:51:50;25.00;20.67;11.00
65973;PMS5003;52729;54.906;73.316;2022-10-17T04:55:03;24.33;22.00;14.00
65973;PMS5003;52729;54.906;73.316;2022-10-17T04:58:04;26.00;21.33;12.00
65973;PMS5003;52729;54.906;73.316;2022-10-17T05:01:06;24.00;20.50;10.00
65973;PMS5003;52729;54.906;73.316;2022-10-17T05:04:13;21.33;20.00;10.33
65973;PMS5003;52729;54.906;73.316;2022-10-17T05:07:14;21.33;19.33;10.00
65973;PMS5003;52729;54.906;73.316;2022-10-17T05:10:15;29.33;23.00;12.00
65973;PMS5003;52729;54.906;73.316;2022-10-17T05:13:19;26.33;22.00;12.67
65973;PMS5003;52729;54.906;73.316;2022-10-17T05:16:20;23.75;19.25;12.00
65973;PMS5003;52729;54.906;73.316;2022-10-17T05:19:21;22.33;19.67;10.67
65973;PMS5003;52729;54.906;73.316;2022-10-17T05:22:24;22.00;21.75;13.00
65973;PMS5003;52729;54.906;73.316;2022-10-17T05:25:25;29.00;24.00;15.67
65973;PMS5003;52729;54.906;73.316;2022-10-17T05:28:26;28.33;24.33;16.00
65973;PMS5003;52729;54.906;73.316;2022-10-17T05:31:32;27.67;24.67;15.33
65973;PMS5003;52729;54.906;73.316;2022-10-17T05:34:33;33.25;27.00;16.50
65973;PMS5003;52729;54.906;73.316;2022-10-17T05:37:34;35.00;28.50;17.00
65973;PMS5003;52729;54.906;73.316;2022-10-17T05:40:36;30.00;26.00;16.00
65973;PMS5003;52729;54.906;73.316;2022-10-17T05:43:39;30.50;26.75;17.25
65973;PMS5003;52729;54.906;73.316;2022-10-17T05:46:40;23.25;21.75;14.00
65973;PMS5003;52729;54.906;73.316;2022-10-17T05:49:41;18.25;17.00;9.25
65973;PMS5003;52729;54.906;73.316;2022-10-17T05:52:44;18.00;16.33;5.00
65973;PMS5003;52729;54.906;73.316;2022-10-17T05:55:59;18.67;15.67;5.00
65973;PMS5003;52729;54.906;73.316;2022-10-17T05:59:01;19.00;15.67;6.00
65973;PMS5003;52729;54.906;73.316;2022-10-17T06:02:17;17.00;14.50;5.00
65973;PMS5003;52729;54.906;73.316;2022-10-17T06:05:18;16.00;13.67;5.00
65973;PMS5003;52729;54.906;73.316;2022-10-17T06:08:21;15.00;13.00;6.00
65973;PMS5003;52729;54.906;73.316;2022-10-17T06:11:23;15.00;14.67;4.33
65973;PMS5003;52729;54.906;73.316;2022-10-17T06:14:24;19.33;17.33;7.33
65973;PMS5003;52729;54.906;73.316;2022-10-17T06:17:30;18.25;16.00;7.00
65973;PMS5003;52729;54.906;73.316;2022-10-17T06:20:32;17.50;17.00;5.50
65973;PMS5003;52729;54.906;73.316;2022-10-17T06:23:40;18.00;16.00;5.00
65973;PMS5003;52729;54.906;73.316;2022-10-17T06:26:48;16.00;15.33;5.00
65973;PMS5003;52729;54.906;73.316;2022-10-17T06:29:50;15.00;14.00;5.00
65973;PMS5003;52729;54.906;73.316;2022-10-17T06:32:52;16.25;15.00;5.00
65973;PMS5003;52729;54.906;73.316;2022-10-17T06:36:04;16.00;15.00;5.00
65973;PMS5003;52729;54.906;73.316;2022-10-17T06:39:06;17.00;14.00;5.25
65973;PMS5003;52729;54.906;73.316;2022-10-17T06:42:15;17.25;15.00;5.00
65973;PMS5003;52729;54.906;73.316;2022-10-17T06:45:23;17.50;16.00;5.75
65973;PMS5003;52729;54.906;73.316;2022-10-17T06:48:51;17.00;15.00;5.00
65973;PMS5003;52729;54.906;73.316;2022-10-17T06:52:02;14.00;13.00;4.00
65973;PMS5003;52729;54.906;73.316;2022-10-17T06:55:13;16.00;14.00;4.00
65973;PMS5003;52729;54.906;73.316;2022-10-17T06:58:27;13.00;12.00;4.33
65973;PMS5003;52729;54.906;73.316;2022-10-17T07:01:47;10.67;9.67;3.00
65973;PMS5003;52729;54.906;73.316;2022-10-17T07:04:49;11.50;8.00;3.00
65973;PMS5003;52729;54.906;73.316;2022-10-17T07:07:50;10.50;10.00;5.00
65973;PMS5003;52729;54.906;73.316;2022-10-17T07:10:51;13.00;8.67;2.00
65973;PMS5003;52729;54.906;73.316;2022-10-17T07:13:54;11.00;8.25;5.00
65973;PMS5003;52729;54.906;73.316;2022-10-17T07:16:56;9.00;8.00;4.00
65973;PMS5003;52729;54.906;73.316;2022-10-17T07:19:58;19.00;15.00;9.00
65973;PMS5003;52729;54.906;73.316;2022-10-17T07:23:00;35.75;28.50;16.75
65973;PMS5003;52729;54.906;73.316;2022-10-17T07:26:02;30.50;25.00;14.50
65973;PMS5003;52729;54.906;73.316;2022-10-17T07:29:08;18.25;17.00;7.25
65973;PMS5003;52729;54.906;73.316;2022-10-17T07:32:23;15.00;15.00;5.00
65973;PMS5003;52729;54.906;73.316;2022-10-17T07:35:24;12.25;10.75;4.50
65973;PMS5003;52729;54.906;73.316;2022-10-17T07:38:29;12.50;10.50;5.00
65973;PMS5003;52729;54.906;73.316;2022-10-17T07:41:30;12.00;10.50;3.00
65973;PMS5003;52729;54.906;73.316;2022-10-17T07:44:31;13.50;10.00;5.50
65973;PMS5003;52729;54.906;73.316;2022-10-17T07:47:33;15.00;9.00;5.00
65973;PMS5003;52729;54.906;73.316;2022-10-17T07:50:40;12.25;7.00;3.00
65973;PMS5003;52729;54.906;73.316;2022-10-17T07:53:41;10.25;6.00;3.00
65973;PMS5003;52729;54.906;73.316;2022-10-17T07:56:51;12.50;10.75;5.00
65973;PMS5003;52729;54.906;73.316;2022-10-17T07:59:52;16.00;14.75;9.50
65973;PMS5003;52729;54.906;73.316;2022-10-17T08:02:54;19.75;19.00;9.00
65973;PMS5003;52729;54.906;73.316;2022-10-17T08:05:58;19.00;18.33;9.00
65973;PMS5003;52729;54.906;73.316;2022-10-17T08:08:59;16.00;16.00;5.00
65973;PMS5003;52729;54.906;73.316;2022-10-17T08:12:07;19.00;18.00;8.75
65973;PMS5003;52729;54.906;73.316;2022-10-17T08:15:08;12.00;12.00;4.75
65973;PMS5003;52729;54.906;73.316;2022-10-17T08:18:09;8.00;7.00;3.00
65973;PMS5003;52729;54.906;73.316;2022-10-17T08:21:11;11.00;8.67;3.67
65973;PMS5003;52729;54.906;73.316;2022-10-17T08:24:13;14.00;11.75;5.00
65973;PMS5003;52729;54.906;73.316;2022-10-17T08:27:14;10.00;7.25;3.25
65973;PMS5003;52729;54.906;73.316;2022-10-17T08:30:20;8.00;5.50;3.00
65973;PMS5003;52729;54.906;73.316;2022-10-17T08:33:27;10.00;6.50;3.00
65973;PMS5003;52729;54.906;73.316;2022-10-17T08:36:28;14.25;12.25;4.75
65973;PMS5003;52729;54.906;73.316;2022-10-17T08:39:29;11.50;9.75;3.00
65973;PMS5003;52729;54.906;73.316;2022-10-17T08:45:44;0.00;0.00;0.00
65973;PMS5003;52729;54.906;73.316;2022-10-17T08:48:46;0.00;0.00;0.00
65973;PMS5003;52729;54.906;73.316;2022-10-17T08:51:50;0.00;0.00;0.00
65973;PMS5003;52729;54.906;73.316;2022-10-17T08:54:57;0.00;0.00;0.00
65973;PMS5003;52729;54.906;73.316;2022-10-17T08:57:59;0.00;0.00;0.00
65973;PMS5003;52729;54.906;73.316;2022-10-17T09:04:27;1.67;0.00;0.00
65973;PMS5003;52729;54.906;73.316;2022-10-17T09:07:46;2.00;1.00;0.00
65973;PMS5003;52729;54.906;73.316;2022-10-17T09:23:24;0.00;0.00;0.00
65973;PMS5003;52729;54.906;73.316;2022-10-17T09:26:27;0.00;0.00;0.00
65973;PMS5003;52729;54.906;73.316;2022-10-17T09:29:29;0.67;0.67;0.00
65973;PMS5003;52729;54.906;73.316;2022-10-17T09:32:30;1.67;1.00;0.00
65973;PMS5003;52729;54.906;73.316;2022-10-17T09:35:42;0.00;0.00;0.00
65973;PMS5003;52729;54.906;73.316;2022-10-17T09:38:44;3.00;3.00;0.00
65973;PMS5003;52729;54.906;73.316;2022-10-17T09:44:50;2.00;2.00;0.00
65973;PMS5003;52729;54.906;73.316;2022-10-17T09:51:05;1.00;1.00;0.00
65973;PMS5003;52729;54.906;73.316;2022-10-17T09:54:21;2.00;1.50;0.00
65973;PMS5003;52729;54.906;73.316;2022-10-17T09:57:23;7.00;6.00;1.00
65973;PMS5003;52729;54.906;73.316;2022-10-17T10:00:27;12.50;11.50;6.50
65973;PMS5003;52729;54.906;73.316;2022-10-17T10:03:29;32.33;28.00;16.33
65973;PMS5003;52729;54.906;73.316;2022-10-17T10:06:30;41.00;35.00;21.67
65973;PMS5003;52729;54.906;73.316;2022-10-17T10:09:31;36.00;30.33;18.67
65973;PMS5003;52729;54.906;73.316;2022-10-17T10:12:37;14.00;11.33;4.67
65973;PMS5003;52729;54.906;73.316;2022-10-17T10:15:39;5.00;5.00;0.00
65973;PMS5003;52729;54.906;73.316;2022-10-17T10:18:50;8.67;7.33;4.33
65973;PMS5003;52729;54.906;73.316;2022-10-17T10:21:58;11.00;8.33;5.00
65973;PMS5003;52729;54.906;73.316;2022-10-17T10:25:14;11.00;10.33;5.00
65973;PMS5003;52729;54.906;73.316;2022-10-17T10:28:16;4.67;4.67;1.00
65973;PMS5003;52729;54.906;73.316;2022-10-17T10:31:23;1.00;1.00;0.00
65973;PMS5003;52729;54.906;73.316;2022-10-17T10:34:28;2.33;1.00;0.00
65973;PMS5003;52729;54.906;73.316;2022-10-17T10:40:46;0.67;0.33;0.00
65973;PMS5003;52729;54.906;73.316;2022-10-17T10:43:48;0.00;0.00;0.00
65973;PMS5003;52729;54.906;73.316;2022-10-17T10:50:42;0.67;0.00;0.00
65973;PMS5003;52729;54.906;73.316;2022-10-17T10:56:46;0.00;0.00;0.00
65973;PMS5003;52729;54.906;73.316;2022-10-17T10:59:54;0.00;0.00;0.00
65973;PMS5003;52729;54.906;73.316;2022-10-17T11:03:17;3.00;2.33;0.00
65973;PMS5003;52729;54.906;73.316;2022-10-17T11:06:22;3.00;2.00;0.00
65973;PMS5003;52729;54.906;73.316;2022-10-17T11:09:33;2.33;2.00;0.00
65973;PMS5003;52729;54.906;73.316;2022-10-17T11:12:45;4.33;4.00;0.00
65973;PMS5003;52729;54.906;73.316;2022-10-17T11:15:53;9.33;7.00;2.00
65973;PMS5003;52729;54.906;73.316;2022-10-17T11:19:16;6.00;5.00;3.00
65973;PMS5003;52729;54.906;73.316;2022-10-17T11:22:31;2.25;2.00;1.00
65973;PMS5003;52729;54.906;73.316;2022-10-17T11:25:33;1.00;0.00;0.00
65973;PMS5003;52729;54.906;73.316;2022-10-17T11:28:40;2.00;0.00;0.00
65973;PMS5003;52729;54.906;73.316;2022-10-17T11:31:44;4.00;4.00;0.00
65973;PMS5003;52729;54.906;73.316;2022-10-17T11:34:48;4.00;4.00;0.00
65973;PMS5003;52729;54.906;73.316;2022-10-17T11:37:54;3.33;2.33;0.00
65973;PMS5003;52729;54.906;73.316;2022-10-17T11:41:04;0.00;0.00;0.00
65973;PMS5003;52729;54.906;73.316;2022-10-17T11:44:29;0.00;0.00;0.00
65973;PMS5003;52729;54.906;73.316;2022-10-17T11:47:52;0.00;0.00;0.00
65973;PMS5003;52729;54.906;73.316;2022-10-17T11:50:59;0.00;0.00;0.00
65973;PMS5003;52729;54.906;73.316;2022-10-17T11:55:02;0.00;0.00;0.00
65973;PMS5003;52729;54.906;73.316;2022-10-17T12:00:51;0.00;0.00;0.00
65973;PMS5003;52729;54.906;73.316;2022-10-17T12:04:03;0.00;0.00;0.00
65973;PMS5003;52729;54.906;73.316;2022-10-17T12:07:16;0.00;0.00;0.00
65973;PMS5003;52729;54.906;73.316;2022-10-17T12:10:32;0.00;0.00;0.00
65973;PMS5003;52729;54.906;73.316;2022-10-17T12:16:47;0.00;0.00;0.00
65973;PMS5003;52729;54.906;73.316;2022-10-17T12:19:48;0.00;0.00;0.00
65973;PMS5003;52729;54.906;73.316;2022-10-17T12:26:00;0.00;0.00;0.00
65973;PMS5003;52729;54.906;73.316;2022-10-17T12:29:02;1.00;0.00;0.00
65973;PMS5003;52729;54.906;73.316;2022-10-17T12:32:10;1.00;0.00;0.00
65973;PMS5003;52729;54.906;73.316;2022-10-17T12:35:13;3.00;1.00;0.00
65973;PMS5003;52729;54.906;73.316;2022-10-17T12:38:19;4.67;4.00;0.00
65973;PMS5003;52729;54.906;73.316;2022-10-17T12:44:46;12.00;10.00;3.00
65973;PMS5003;52729;54.906;73.316;2022-10-17T12:47:47;7.00;6.00;2.00
65973;PMS5003;52729;54.906;73.316;2022-10-17T12:54:11;4.00;4.00;1.00
65973;PMS5003;52729;54.906;73.316;2022-10-17T12:57:17;19.00;18.00;10.00
65973;PMS5003;52729;54.906;73.316;2022-10-17T13:03:31;16.00;15.00;5.00
65973;PMS5003;52729;54.906;73.316;2022-10-17T13:06:34;20.00;19.33;12.33
65973;PMS5003;52729;54.906;73.316;2022-10-17T13:09:41;24.33;21.00;14.33
65973;PMS5003;52729;54.906;73.316;2022-10-17T13:12:43;24.00;20.00;14.33
65973;PMS5003;52729;54.906;73.316;2022-10-17T13:15:47;21.67;19.33;11.00
65973;PMS5003;52729;54.906;73.316;2022-10-17T13:18:51;14.00;13.67;4.33
65973;PMS5003;52729;54.906;73.316;2022-10-17T13:21:53;15.00;14.33;7.00
65973;PMS5003;52729;54.906;73.316;2022-10-17T13:25:08;17.00;16.00;8.00
65973;PMS5003;52729;54.906;73.316;2022-10-17T13:28:11;25.00;23.00;14.00
65973;PMS5003;52729;54.906;73.316;2022-10-17T13:31:25;29.00;26.33;17.33
65973;PMS5003;52729;54.906;73.316;2022-10-17T13:34:27;28.67;26.00;17.33
65973;PMS5003;52729;54.906;73.316;2022-10-17T13:37:28;28.67;25.00;17.00
65973;PMS5003;52729;54.906;73.316;2022-10-17T13:40:30;26.33;25.00;17.00
65973;PMS5003;52729;54.906;73.316;2022-10-17T13:43:31;25.00;24.00;17.00
65973;PMS5003;52729;54.906;73.316;2022-10-17T13:46:32;17.00;15.67;9.33
65973;PMS5003;52729;54.906;73.316;2022-10-17T13:49:38;12.33;12.00;4.33
65973;PMS5003;52729;54.906;73.316;2022-10-17T13:52:40;16.00;14.00;6.00
65973;PMS5003;52729;54.906;73.316;2022-10-17T13:55:54;16.00;13.33;6.00
65973;PMS5003;52729;54.906;73.316;2022-10-17T13:59:17;17.00;15.00;5.00
65973;PMS5003;52729;54.906;73.316;2022-10-17T14:02:25;16.00;13.67;4.33
65973;PMS5003;52729;54.906;73.316;2022-10-17T14:05:56;16.00;15.00;6.00
65973;PMS5003;52729;54.906;73.316;2022-10-17T14:09:15;16.00;15.00;5.00
65973;PMS5003;52729;54.906;73.316;2022-10-17T14:12:17;16.00;16.00;6.00
65973;PMS5003;52729;54.906;73.316;2022-10-17T14:15:20;15.00;14.00;5.00
65973;PMS5003;52729;54.906;73.316;2022-10-17T14:18:26;14.00;11.00;4.00
65973;PMS5003;52729;54.906;73.316;2022-10-17T14:21:32;13.00;9.67;4.00
65973;PMS5003;52729;54.906;73.316;2022-10-17T14:24:34;15.00;11.00;4.00
65973;PMS5003;52729;54.906;73.316;2022-10-17T14:27:37;14.00;12.00;4.00
65973;PMS5003;52729;54.906;73.316;2022-10-17T14:30:52;18.00;14.67;6.33
65973;PMS5003;52729;54.906;73.316;2022-10-17T14:33:54;20.67;16.33;6.67
65973;PMS5003;52729;54.906;73.316;2022-10-17T14:36:56;18.00;17.00;7.33
65973;PMS5003;52729;54.906;73.316;2022-10-17T14:40:01;18.00;18.00;8.00
65973;PMS5003;52729;54.906;73.316;2022-10-17T14:43:13;14.00;12.33;4.00
65973;PMS5003;52729;54.906;73.316;2022-10-17T14:46:22;6.67;6.00;3.00
65973;PMS5003;52729;54.906;73.316;2022-10-17T14:49:31;4.00;4.00;1.00
65973;PMS5003;52729;54.906;73.316;2022-10-17T14:52:37;5.67;5.00;1.33
65973;PMS5003;52729;54.906;73.316;2022-10-17T14:55:59;4.00;3.33;1.00
65973;PMS5003;52729;54.906;73.316;2022-10-17T14:59:00;10.00;9.00;4.00
65973;PMS5003;52729;54.906;73.316;2022-10-17T15:02:02;4.67;3.00;0.00
65973;PMS5003;52729;54.906;73.316;2022-10-17T15:05:09;1.00;0.00;0.00
65973;PMS5003;52729;54.906;73.316;2022-10-17T15:08:14;0.33;0.33;0.33
65973;PMS5003;52729;54.906;73.316;2022-10-17T15:11:15;0.00;0.00;0.00
65973;PMS5003;52729;54.906;73.316;2022-10-17T15:14:16;3.00;2.00;0.00
65973;PMS5003;52729;54.906;73.316;2022-10-17T15:17:24;1.00;1.00;0.00
65973;PMS5003;52729;54.906;73.316;2022-10-17T15:20:31;2.33;1.00;0.67
65973;PMS5003;52729;54.906;73.316;2022-10-17T15:23:36;1.00;1.00;0.00
65973;PMS5003;52729;54.906;73.316;2022-10-17T15:26:37;2.00;2.00;0.00
65973;PMS5003;52729;54.906;73.316;2022-10-17T15:29:38;2.00;2.00;0.00
65973;PMS5003;52729;54.906;73.316;2022-10-17T15:32:39;2.00;2.00;0.00
65973;PMS5003;52729;54.906;73.316;2022-10-17T15:35:49;4.00;4.00;0.00
65973;PMS5003;52729;54.906;73.316;2022-10-17T15:38:52;4.00;3.33;0.00
65973;PMS5003;52729;54.906;73.316;2022-10-17T15:42:06;2.00;2.00;0.00
65973;PMS5003;52729;54.906;73.316;2022-10-17T15:45:09;4.00;4.00;0.00
65973;PMS5003;52729;54.906;73.316;2022-10-17T15:48:14;3.00;2.00;1.00
65973;PMS5003;52729;54.906;73.316;2022-10-17T15:51:18;4.00;3.67;0.00
65973;PMS5003;52729;54.906;73.316;2022-10-17T15:54:19;5.00;5.00;0.00
65973;PMS5003;52729;54.906;73.316;2022-10-17T15:57:24;5.33;4.00;0.00
65973;PMS5003;52729;54.906;73.316;2022-10-17T16:00:36;2.33;2.00;0.00
65973;PMS5003;52729;54.906;73.316;2022-10-17T16:03:37;4.00;4.00;0.00
65973;PMS5003;52729;54.906;73.316;2022-10-17T16:06:38;3.00;3.00;0.00
65973;PMS5003;52729;54.906;73.316;2022-10-17T16:09:39;1.33;1.33;0.33
65973;PMS5003;52729;54.906;73.316;2022-10-17T16:12:40;2.00;2.00;1.00
65973;PMS5003;52729;54.906;73.316;2022-10-17T16:15:47;3.67;3.00;0.00
65973;PMS5003;52729;54.906;73.316;2022-10-17T16:18:48;3.67;3.33;0.00
65973;PMS5003;52729;54.906;73.316;2022-10-17T16:21:49;4.00;4.00;2.00
65973;PMS5003;52729;54.906;73.316;2022-10-17T16:24:50;4.00;3.67;1.00
65973;PMS5003;52729;54.906;73.316;2022-10-17T16:27:58;4.00;3.67;0.00
65973;PMS5003;52729;54.906;73.316;2022-10-17T16:30:59;4.00;2.00;0.00
65973;PMS5003;52729;54.906;73.316;2022-10-17T16:34:01;3.00;2.00;0.00
65973;PMS5003;52729;54.906;73.316;2022-10-17T16:37:03;3.67;3.33;0.00
65973;PMS5003;52729;54.906;73.316;2022-10-17T16:40:04;3.67;3.67;0.00
65973;PMS5003;52729;54.906;73.316;2022-10-17T16:43:11;3.00;1.67;0.00
65973;PMS5003;52729;54.906;73.316;2022-10-17T16:46:12;2.00;2.00;0.00
65973;PMS5003;52729;54.906;73.316;2022-10-17T16:49:13;2.00;1.00;0.00
65973;PMS5003;52729;54.906;73.316;2022-10-17T16:52:18;3.00;3.00;0.00
65973;PMS5003;52729;54.906;73.316;2022-10-17T16:55:26;3.00;3.00;0.00
65973;PMS5003;52729;54.906;73.316;2022-10-17T16:58:27;3.00;3.00;0.00
65973;PMS5003;52729;54.906;73.316;2022-10-17T17:01:30;3.00;3.00;0.00
65973;PMS5003;52729;54.906;73.316;2022-10-17T17:04:31;4.00;3.67;0.00
65973;PMS5003;52729;54.906;73.316;2022-10-17T17:07:32;2.00;2.00;0.00
65973;PMS5003;52729;54.906;73.316;2022-10-17T17:10:46;4.00;3.00;0.00
65973;PMS5003;52729;54.906;73.316;2022-10-17T17:13:49;4.00;2.00;0.00
65973;PMS5003;52729;54.906;73.316;2022-10-17T17:16:50;2.00;2.00;0.00
65973;PMS5003;52729;54.906;73.316;2022-10-17T17:20:01;3.00;3.00;0.67
65973;PMS5003;52729;54.906;73.316;2022-10-17T17:23:03;3.00;2.00;0.00
65973;PMS5003;52729;54.906;73.316;2022-10-17T17:26:04;4.67;4.00;0.33
65973;PMS5003;52729;54.906;73.316;2022-10-17T17:29:16;3.67;3.33;1.00
65973;PMS5003;52729;54.906;73.316;2022-10-17T17:32:17;4.00;4.00;1.00
65973;PMS5003;52729;54.906;73.316;2022-10-17T17:35:28;4.00;4.00;1.00
65973;PMS5003;52729;54.906;73.316;2022-10-17T17:38:31;6.67;5.00;2.00
65973;PMS5003;52729;54.906;73.316;2022-10-17T17:41:38;8.33;6.67;2.00
65973;PMS5003;52729;54.906;73.316;2022-10-17T17:44:39;13.00;8.00;3.33
65973;PMS5003;52729;54.906;73.316;2022-10-17T17:47:45;12.67;8.00;4.00
65973;PMS5003;52729;54.906;73.316;2022-10-17T17:50:51;11.33;8.00;3.00
65973;PMS5003;52729;54.906;73.316;2022-10-17T17:53:52;7.00;6.00;2.67
65973;PMS5003;52729;54.906;73.316;2022-10-17T17:56:53;6.00;4.67;3.00
65973;PMS5003;52729;54.906;73.316;2022-10-17T17:59:54;5.00;4.00;1.00
65973;PMS5003;52729;54.906;73.316;2022-10-17T18:02:55;4.00;4.00;2.00
65973;PMS5003;52729;54.906;73.316;2022-10-17T18:05:56;4.00;4.00;2.00
65973;PMS5003;52729;54.906;73.316;2022-10-17T18:08:58;4.67;4.67;3.00
65973;PMS5003;52729;54.906;73.316;2022-10-17T18:11:59;4.00;4.00;2.00
65973;PMS5003;52729;54.906;73.316;2022-10-17T18:15:00;4.00;4.00;1.00
65973;PMS5003;52729;54.906;73.316;2022-10-17T18:18:02;2.00;2.00;0.00
65973;PMS5003;52729;54.906;73.316;2022-10-17T18:21:03;3.00;2.00;0.00
65973;PMS5003;52729;54.906;73.316;2022-10-17T18:24:14;4.00;3.00;0.00
65973;PMS5003;52729;54.906;73.316;2022-10-17T18:27:15;2.00;2.00;0.00
65973;PMS5003;52729;54.906;73.316;2022-10-17T18:30:16;3.33;3.00;0.00
65973;PMS5003;52729;54.906;73.316;2022-10-17T18:33:17;3.00;3.00;0.00
65973;PMS5003;52729;54.906;73.316;2022-10-17T18:36:22;3.00;2.67;0.00
65973;PMS5003;52729;54.906;73.316;2022-10-17T18:39:26;3.00;1.00;0.00
65973;PMS5003;52729;54.906;73.316;2022-10-17T18:42:27;2.00;1.00;0.00
65973;PMS5003;52729;54.906;73.316;2022-10-17T18:45:37;3.00;2.00;0.00